createdAt,value
2023-12-16T00:01:45.262Z,23.90
2023-12-16T00:04:15.989Z,24.90
2023-12-16T00:06:46.540Z,23.20
2023-12-16T00:09:16.881Z,23.80
2023-12-16T00:11:47.307Z,22.90
2023-12-16T00:14:17.751Z,24.40
2023-12-16T00:16:48.194Z,22.90
2023-12-16T00:19:18.681Z,22.30
2023-12-16T00:21:49.041Z,22.80
2023-12-16T00:24:19.391Z,21.50
2023-12-16T00:26:49.642Z,21.00
2023-12-16T00:29:19.884Z,22.60
2023-12-16T00:31:50.185Z,20.80
2023-12-16T00:34:20.711Z,20.50
2023-12-16T00:36:51.118Z,21.10
2023-12-16T00:39:21.473Z,19.00
2023-12-16T00:41:51.806Z,19.90
2023-12-16T00:44:22.047Z,20.00
2023-12-16T00:46:52.528Z,18.50
2023-12-16T00:49:22.870Z,18.50
2023-12-16T00:51:53.270Z,18.40
2023-12-16T00:54:23.572Z,18.60
2023-12-16T00:56:54.502Z,17.90
2023-12-16T00:59:27.312Z,17.40
2023-12-16T01:01:57.778Z,16.80
2023-12-16T01:04:28.109Z,17.00
2023-12-16T01:06:58.423Z,40.80
2023-12-16T01:09:28.680Z,88.20
2023-12-16T01:11:58.909Z,51.00
2023-12-16T01:14:29.238Z,43.00
2023-12-16T01:16:59.564Z,42.60
2023-12-16T01:19:30.072Z,41.20
2023-12-16T01:22:00.492Z,41.50
2023-12-16T01:24:33.445Z,41.60
2023-12-16T01:27:03.894Z,39.10
2023-12-16T01:29:34.266Z,37.40
2023-12-16T01:32:04.922Z,38.70
2023-12-16T01:34:35.215Z,36.40
2023-12-16T01:37:05.658Z,37.40
2023-12-16T01:39:35.983Z,36.00
2023-12-16T01:42:06.762Z,34.60
2023-12-16T01:44:37.338Z,34.90
2023-12-16T01:47:08.058Z,34.70
2023-12-16T01:49:38.978Z,33.20
2023-12-16T01:52:09.506Z,33.40
2023-12-16T01:54:39.798Z,34.00
2023-12-16T01:57:10.039Z,31.60
2023-12-16T01:59:40.591Z,32.60
2023-12-16T02:02:10.865Z,32.20
2023-12-16T02:04:41.175Z,30.60
2023-12-16T02:07:11.522Z,29.20
2023-12-16T02:09:41.872Z,30.70
2023-12-16T02:12:12.535Z,30.20
2023-12-16T02:14:42.845Z,29.30
2023-12-16T02:17:14.465Z,28.50
2023-12-16T02:19:45.252Z,28.10
2023-12-16T02:22:15.646Z,28.60
2023-12-16T02:24:45.913Z,26.70
2023-12-16T02:27:16.484Z,27.40
2023-12-16T02:29:47.198Z,27.20
2023-12-16T02:32:18.438Z,26.50
2023-12-16T02:34:49.472Z,26.70
2023-12-16T02:37:19.970Z,24.70
2023-12-16T02:39:50.523Z,25.30
2023-12-16T02:42:21.011Z,22.90
2023-12-16T02:44:51.262Z,23.80
2023-12-16T02:47:21.484Z,24.80
2023-12-16T02:49:51.812Z,23.90
2023-12-16T02:52:22.224Z,23.40
2023-12-16T02:54:52.602Z,22.90
2023-12-16T02:57:22.893Z,21.70
2023-12-16T02:59:53.289Z,22.70
2023-12-16T03:02:23.537Z,20.00
2023-12-16T03:04:53.890Z,20.90
2023-12-16T03:07:24.323Z,21.30
2023-12-16T03:09:54.618Z,19.40
2023-12-16T03:12:25.677Z,21.70
2023-12-16T03:14:56.085Z,20.00
2023-12-16T03:17:26.556Z,21.10
2023-12-16T03:19:57.147Z,20.60
2023-12-16T03:22:27.441Z,18.90
2023-12-16T03:24:57.745Z,18.80
2023-12-16T03:27:27.993Z,20.00
2023-12-16T03:29:58.434Z,17.30
2023-12-16T03:32:28.667Z,19.50
2023-12-16T03:34:58.950Z,17.80
2023-12-16T03:37:29.414Z,16.40
2023-12-16T03:39:59.857Z,16.70
2023-12-16T03:42:30.246Z,17.40
2023-12-16T03:45:00.616Z,16.30
2023-12-16T03:47:31.127Z,16.10
2023-12-16T03:50:01.422Z,17.00
2023-12-16T03:52:31.745Z,16.20
2023-12-16T03:55:02.295Z,15.90
2023-12-16T03:57:33.941Z,15.50
2023-12-16T04:00:04.426Z,15.00
2023-12-16T04:02:34.854Z,15.80
2023-12-16T04:05:05.549Z,15.00
2023-12-16T04:07:36.035Z,15.40
2023-12-16T04:10:08.057Z,13.80
2023-12-16T04:12:38.378Z,13.80
2023-12-16T04:15:12.021Z,13.60
2023-12-16T04:17:42.782Z,13.00
2023-12-16T04:20:13.903Z,14.80
2023-12-16T04:22:44.314Z,13.90
2023-12-16T04:25:14.736Z,12.60
2023-12-16T04:27:45.036Z,14.10
2023-12-16T04:30:15.878Z,13.10
2023-12-16T04:32:46.279Z,13.00
2023-12-16T04:35:16.674Z,12.90
2023-12-16T04:37:46.948Z,12.40
2023-12-16T04:40:17.653Z,12.20
2023-12-16T04:42:47.947Z,13.30
2023-12-16T04:45:18.377Z,11.20
2023-12-16T04:47:48.811Z,13.00
2023-12-16T04:50:19.452Z,11.40
2023-12-16T04:52:49.685Z,11.30
2023-12-16T04:55:20.042Z,10.70
2023-12-16T04:57:50.348Z,11.30
2023-12-16T05:00:21.010Z,10.90
2023-12-16T05:02:51.404Z,11.00
2023-12-16T05:05:21.648Z,10.80
2023-12-16T05:07:51.901Z,11.00
2023-12-16T05:10:22.224Z,10.70
2023-12-16T05:12:52.528Z,11.00
2023-12-16T05:15:22.800Z,9.60
2023-12-16T05:17:53.111Z,10.50
2023-12-16T05:20:23.783Z,9.80
2023-12-16T05:22:54.088Z,10.80
2023-12-16T05:25:24.363Z,10.10
2023-12-16T05:27:54.726Z,10.10
2023-12-16T05:30:25.059Z,9.80
2023-12-16T05:32:55.538Z,9.80
2023-12-16T05:35:25.916Z,9.50
2023-12-16T05:37:56.301Z,9.20
2023-12-16T05:40:26.687Z,9.70
2023-12-16T05:42:57.049Z,9.40
2023-12-16T05:45:27.305Z,9.10
2023-12-16T05:47:57.696Z,8.60
2023-12-16T05:50:28.155Z,9.10
2023-12-16T05:52:58.514Z,9.00
2023-12-16T05:55:29.499Z,8.60
2023-12-16T05:57:59.812Z,8.80
2023-12-16T06:00:30.283Z,8.60
2023-12-16T06:03:00.639Z,8.20
2023-12-16T06:05:31.082Z,8.10
2023-12-16T06:08:01.376Z,8.40
2023-12-16T06:10:32.105Z,8.30
2023-12-16T06:13:02.484Z,8.00
2023-12-16T06:15:32.842Z,7.90
2023-12-16T06:18:05.269Z,8.20
2023-12-16T06:20:36.100Z,7.70
2023-12-16T06:23:06.353Z,7.20
2023-12-16T06:25:36.767Z,6.80
2023-12-16T06:28:07.194Z,7.40
2023-12-16T06:30:38.363Z,7.00
2023-12-16T06:33:08.781Z,7.60
2023-12-16T06:35:39.223Z,6.90
2023-12-16T06:38:09.485Z,7.30
2023-12-16T06:40:39.851Z,7.30
2023-12-16T06:43:10.149Z,7.60
2023-12-16T06:45:40.527Z,7.10
2023-12-16T06:48:10.827Z,6.40
2023-12-16T06:50:41.278Z,6.40
2023-12-16T06:53:12.661Z,6.60
2023-12-16T06:55:43.053Z,6.50
2023-12-16T06:58:13.455Z,6.30
2023-12-16T07:00:43.915Z,6.60
2023-12-16T07:03:14.477Z,6.50
2023-12-16T07:05:44.981Z,5.70
2023-12-16T07:08:15.707Z,6.50
2023-12-16T07:10:46.488Z,6.10
2023-12-16T07:13:16.822Z,6.00
2023-12-16T07:15:47.161Z,5.90
2023-12-16T07:18:17.512Z,5.80
2023-12-16T07:20:47.924Z,5.60
2023-12-16T07:23:18.198Z,5.60
2023-12-16T07:25:48.760Z,5.60
2023-12-16T07:28:19.071Z,5.20
2023-12-16T07:30:49.629Z,5.50
2023-12-16T07:33:19.996Z,5.20
2023-12-16T07:35:53.304Z,5.40
2023-12-16T07:38:25.188Z,5.60
2023-12-16T07:40:55.889Z,4.90
2023-12-16T07:43:26.404Z,5.40
2023-12-16T07:45:56.732Z,4.90
2023-12-16T07:48:27.186Z,5.50
2023-12-16T07:50:57.724Z,4.80
2023-12-16T07:53:28.122Z,5.30
2023-12-16T07:55:58.426Z,5.00
2023-12-16T07:58:28.726Z,5.00
2023-12-16T08:00:59.214Z,5.10
2023-12-16T08:03:29.542Z,5.20
2023-12-16T08:05:59.904Z,4.80
2023-12-16T08:08:30.196Z,5.00
2023-12-16T08:11:00.434Z,4.80
2023-12-16T08:13:31.197Z,5.00
2023-12-16T08:16:01.824Z,4.90
2023-12-16T08:18:32.540Z,4.60
2023-12-16T08:21:03.430Z,4.20
2023-12-16T08:23:33.702Z,4.30
2023-12-16T08:26:04.596Z,4.30
2023-12-16T08:28:34.965Z,4.50
2023-12-16T08:31:05.981Z,4.40
2023-12-16T08:33:36.414Z,4.10
2023-12-16T08:36:08.607Z,4.40
2023-12-16T08:38:40.686Z,4.60
2023-12-16T08:41:11.369Z,4.20
2023-12-16T08:43:43.101Z,4.30
2023-12-16T08:46:13.827Z,3.80
2023-12-16T08:48:44.292Z,4.20
2023-12-16T08:51:14.555Z,4.80
2023-12-16T08:53:44.925Z,4.20
2023-12-16T08:56:15.269Z,3.70
2023-12-16T08:58:45.729Z,4.00
2023-12-16T09:01:16.263Z,3.80
2023-12-16T09:03:46.861Z,3.40
2023-12-16T09:06:17.314Z,4.50
2023-12-16T09:08:47.585Z,3.90
2023-12-16T09:11:18.007Z,4.10
2023-12-16T09:13:48.326Z,4.40
2023-12-16T09:16:19.139Z,39.40
2023-12-16T09:18:49.511Z,20.90
2023-12-16T09:21:20.648Z,15.30
2023-12-16T09:23:50.891Z,16.70
2023-12-16T09:26:22.460Z,15.90
2023-12-16T09:28:53.017Z,14.80
2023-12-16T09:31:23.476Z,14.80
2023-12-16T09:33:54.014Z,14.40
2023-12-16T09:36:28.206Z,14.70
2023-12-16T09:38:59.072Z,13.80
2023-12-16T09:41:30.262Z,13.90
2023-12-16T09:44:01.090Z,13.50
2023-12-16T09:46:32.887Z,13.90
2023-12-16T09:49:03.778Z,13.60
2023-12-16T09:51:34.098Z,12.80
2023-12-16T09:54:04.436Z,12.30
2023-12-16T09:56:34.767Z,12.50
2023-12-16T09:59:05.049Z,12.90
2023-12-16T10:01:35.472Z,12.60
2023-12-16T10:04:06.131Z,11.50
2023-12-16T10:06:36.402Z,11.30
2023-12-16T10:09:06.654Z,11.80
2023-12-16T10:11:42.756Z,11.20
2023-12-16T10:14:14.201Z,10.80
2023-12-16T10:16:48.034Z,10.50
2023-12-16T10:19:19.095Z,11.00
2023-12-16T10:21:49.873Z,9.70
2023-12-16T10:24:20.282Z,10.10
2023-12-16T10:26:50.657Z,10.90
2023-12-16T10:29:22.713Z,11.70
2023-12-16T10:31:53.229Z,11.70
2023-12-16T10:34:23.635Z,11.40
2023-12-16T10:36:53.934Z,10.90
2023-12-16T10:39:24.261Z,10.00
2023-12-16T10:41:54.522Z,9.50
2023-12-16T10:44:24.771Z,8.40
2023-12-16T10:46:55.954Z,7.60
2023-12-16T10:49:29.573Z,17.50
2023-12-16T10:52:04.873Z,23.00
2023-12-16T10:54:38.456Z,25.70
2023-12-16T10:57:27.001Z,27.30
2023-12-16T11:00:05.794Z,24.40
2023-12-16T11:02:40.337Z,22.20
2023-12-16T11:05:16.019Z,20.80
2023-12-16T11:07:46.441Z,20.20
2023-12-16T11:10:17.278Z,19.70
2023-12-16T11:12:47.642Z,19.00
2023-12-16T11:15:18.515Z,19.20
2023-12-16T11:17:53.565Z,19.50
2023-12-16T11:20:24.385Z,17.90
2023-12-16T11:22:54.869Z,17.70
2023-12-16T11:25:25.323Z,18.00
2023-12-16T11:27:55.741Z,18.30
2023-12-16T11:30:26.040Z,17.50
2023-12-16T11:32:56.954Z,17.40
2023-12-16T11:35:50.000Z,17.20
2023-12-16T11:38:42.929Z,17.00
2023-12-16T11:41:34.018Z,15.80
2023-12-16T11:44:04.450Z,15.10
2023-12-16T11:46:43.050Z,15.50
2023-12-16T11:49:15.817Z,14.70
2023-12-16T11:51:46.404Z,26.10
2023-12-16T11:54:16.688Z,39.60
2023-12-16T11:56:46.976Z,36.70
2023-12-16T11:59:17.276Z,34.20
2023-12-16T12:01:47.766Z,31.00
2023-12-16T12:04:18.185Z,29.70
2023-12-16T12:06:48.525Z,28.10
2023-12-16T12:09:18.977Z,26.20
2023-12-16T12:11:49.593Z,27.10
2023-12-16T12:14:19.883Z,25.60
2023-12-16T12:16:50.627Z,25.60
2023-12-16T12:19:21.072Z,25.80
2023-12-16T12:21:52.890Z,24.00
2023-12-16T12:24:23.765Z,24.80
2023-12-16T12:26:54.797Z,24.40
2023-12-16T12:29:25.114Z,23.30
2023-12-16T12:31:55.444Z,22.10
2023-12-16T12:34:25.795Z,23.20
2023-12-16T12:36:58.690Z,21.20
2023-12-16T12:39:28.966Z,23.10
2023-12-16T12:42:06.605Z,21.50
2023-12-16T12:44:38.696Z,20.50
2023-12-16T12:47:10.098Z,20.90
2023-12-16T12:49:41.357Z,19.60
2023-12-16T12:52:11.781Z,20.00
2023-12-16T12:54:48.334Z,18.50
2023-12-16T12:57:22.869Z,18.10
2023-12-16T13:00:00.578Z,18.00
2023-12-16T13:02:34.204Z,18.10
2023-12-16T13:05:04.822Z,18.10
2023-12-16T13:07:35.094Z,24.40
2023-12-16T13:10:06.151Z,45.10
2023-12-16T13:12:36.462Z,46.80
2023-12-16T13:15:08.226Z,44.60
2023-12-16T13:17:39.374Z,43.80
2023-12-16T13:20:11.289Z,40.70
2023-12-16T13:22:42.734Z,39.40
2023-12-16T13:25:13.202Z,34.40
2023-12-16T13:27:43.594Z,32.80
2023-12-16T13:30:15.063Z,34.90
2023-12-16T13:32:45.485Z,30.70
2023-12-16T13:35:15.934Z,30.80
2023-12-16T13:37:46.174Z,32.00
2023-12-16T13:40:16.452Z,72.60
2023-12-16T13:42:46.840Z,48.00
2023-12-16T13:45:17.584Z,54.50
2023-12-16T13:47:47.984Z,52.40
2023-12-16T13:50:18.320Z,49.60
2023-12-16T13:52:50.603Z,46.70
2023-12-16T13:55:20.849Z,46.30
2023-12-16T13:57:51.205Z,44.70
2023-12-16T14:00:22.875Z,44.50
2023-12-16T14:02:53.284Z,44.60
2023-12-16T14:05:23.764Z,43.00
2023-12-16T14:07:54.021Z,41.30
2023-12-16T14:10:24.520Z,38.40
2023-12-16T14:12:54.805Z,41.50
2023-12-16T14:15:25.064Z,39.50
2023-12-16T14:17:55.399Z,37.50
2023-12-16T14:20:25.775Z,37.30
2023-12-16T14:22:56.022Z,36.40
2023-12-16T14:25:27.014Z,36.60
2023-12-16T14:27:57.287Z,34.40
2023-12-16T14:30:27.640Z,34.70
2023-12-16T14:32:58.166Z,35.70
2023-12-16T14:35:28.588Z,34.70
2023-12-16T14:37:58.846Z,32.60
2023-12-16T14:40:29.337Z,33.30
2023-12-16T14:42:59.636Z,30.60
2023-12-16T14:45:30.193Z,30.10
2023-12-16T14:48:00.598Z,28.30
2023-12-16T14:50:30.953Z,29.90
2023-12-16T14:53:01.273Z,29.00
2023-12-16T14:55:31.708Z,27.60
2023-12-16T14:58:02.538Z,27.50
2023-12-16T15:00:32.880Z,26.40
2023-12-16T15:03:03.187Z,25.80
2023-12-16T15:05:33.721Z,25.90
2023-12-16T15:08:04.056Z,24.90
2023-12-16T15:10:34.393Z,25.30
2023-12-16T15:13:07.879Z,24.40
2023-12-16T15:15:39.389Z,48.80
2023-12-16T15:18:11.002Z,57.20
2023-12-16T15:20:41.376Z,47.20
2023-12-16T15:23:11.668Z,43.70
2023-12-16T15:25:42.170Z,41.90
2023-12-16T15:28:12.452Z,40.00
2023-12-16T15:30:42.741Z,39.40
2023-12-16T15:33:13.140Z,38.70
2023-12-16T15:35:43.602Z,38.20
2023-12-16T15:38:14.029Z,36.80
2023-12-16T15:40:44.372Z,35.70
2023-12-16T15:43:14.622Z,35.70
2023-12-16T15:45:45.110Z,65.50
2023-12-16T15:48:15.491Z,57.80
2023-12-16T15:50:45.908Z,48.20
2023-12-16T15:53:16.385Z,48.00
2023-12-16T15:55:46.829Z,45.90
2023-12-16T15:58:17.217Z,46.30
2023-12-16T16:00:47.484Z,46.70
2023-12-16T16:03:19.257Z,79.40
2023-12-16T16:05:51.106Z,73.80
2023-12-16T16:08:21.791Z,57.90
2023-12-16T16:10:53.046Z,59.90
2023-12-16T16:13:23.329Z,55.60
2023-12-16T16:15:53.726Z,57.50
2023-12-16T16:18:24.058Z,59.60
2023-12-16T16:20:54.422Z,58.10
2023-12-16T16:23:24.956Z,58.00
2023-12-16T16:25:55.303Z,56.00
2023-12-16T16:28:25.602Z,53.60
2023-12-16T16:30:55.909Z,53.00
2023-12-16T16:33:26.305Z,50.10
2023-12-16T16:35:56.668Z,51.90
2023-12-16T16:38:27.332Z,51.80
2023-12-16T16:40:57.574Z,50.30
2023-12-16T16:43:27.852Z,49.00
2023-12-16T16:45:58.162Z,48.50
2023-12-16T16:48:28.677Z,48.20
2023-12-16T16:50:59.065Z,49.10
2023-12-16T16:53:29.338Z,46.80
2023-12-16T16:55:59.662Z,46.40
2023-12-16T16:58:29.966Z,45.30
2023-12-16T17:01:00.298Z,45.20
2023-12-16T17:03:35.810Z,42.80
2023-12-16T17:06:06.980Z,42.80
2023-12-16T17:08:37.728Z,42.60
2023-12-16T17:11:08.257Z,42.20
2023-12-16T17:13:38.495Z,41.80
2023-12-16T17:16:13.826Z,40.00
2023-12-16T17:18:44.315Z,38.60
2023-12-16T17:21:14.616Z,38.90
2023-12-16T17:23:44.909Z,38.00
2023-12-16T17:26:15.247Z,37.90
2023-12-16T17:28:45.500Z,37.00
2023-12-16T17:31:15.957Z,37.30
2023-12-16T17:33:46.350Z,36.10
2023-12-16T17:36:16.928Z,36.20
2023-12-16T17:38:47.223Z,54.80
2023-12-16T17:41:17.615Z,57.90
2023-12-16T17:43:47.873Z,50.30
2023-12-16T17:46:18.293Z,46.00
2023-12-16T17:48:48.811Z,49.60
2023-12-16T17:51:19.537Z,50.40
2023-12-16T17:53:50.053Z,48.20
2023-12-16T17:56:20.318Z,48.80
2023-12-16T17:58:50.601Z,46.80
2023-12-16T18:01:21.059Z,47.80
2023-12-16T18:03:52.415Z,45.40
2023-12-16T18:06:23.004Z,43.40
2023-12-16T18:08:53.400Z,46.10
2023-12-16T18:11:23.704Z,43.90
2023-12-16T18:13:54.176Z,42.30
2023-12-16T18:16:24.572Z,43.00
2023-12-16T18:18:54.968Z,41.10
2023-12-16T18:21:25.351Z,41.40
2023-12-16T18:23:56.683Z,39.10
2023-12-16T18:26:27.518Z,40.60
2023-12-16T18:28:57.836Z,37.80
2023-12-16T18:31:28.208Z,38.80
2023-12-16T18:33:58.670Z,37.90
2023-12-16T18:36:29.921Z,37.60
2023-12-16T18:39:00.251Z,35.80
2023-12-16T18:41:30.593Z,34.90
2023-12-16T18:44:00.875Z,35.80
2023-12-16T18:46:33.437Z,38.10
2023-12-16T18:49:03.961Z,33.20
2023-12-16T18:51:34.385Z,33.50
2023-12-16T18:54:04.989Z,33.30
2023-12-16T18:56:35.303Z,32.30
2023-12-16T18:59:05.621Z,31.20
2023-12-16T19:01:36.953Z,32.20
2023-12-16T19:04:07.517Z,31.40
2023-12-16T19:06:38.020Z,30.70
2023-12-16T19:09:10.001Z,30.40
2023-12-16T19:11:40.889Z,30.40
2023-12-16T19:14:11.632Z,30.30
2023-12-16T19:16:41.916Z,29.80
2023-12-16T19:19:12.271Z,28.90
2023-12-16T19:21:42.603Z,27.70
2023-12-16T19:24:14.750Z,27.20
2023-12-16T19:26:45.263Z,27.50
2023-12-16T19:29:15.691Z,27.00
2023-12-16T19:31:45.985Z,27.10
2023-12-16T19:34:16.487Z,26.40
2023-12-16T19:36:48.682Z,26.30
2023-12-16T19:39:22.649Z,25.40
2023-12-16T19:41:53.715Z,25.50
2023-12-16T19:44:24.249Z,24.20
2023-12-16T19:46:54.564Z,26.40
2023-12-16T19:49:25.104Z,45.90
2023-12-16T19:51:55.572Z,38.90
2023-12-16T19:54:26.531Z,38.10
2023-12-16T19:56:56.838Z,36.90
2023-12-16T19:59:27.504Z,35.90
2023-12-16T20:01:57.782Z,34.90
2023-12-16T20:04:28.075Z,35.50
2023-12-16T20:06:58.396Z,34.10
2023-12-16T20:09:28.701Z,36.90
2023-12-16T20:11:58.983Z,34.10
2023-12-16T20:14:29.560Z,34.90
2023-12-16T20:16:59.810Z,32.20
2023-12-16T20:19:30.210Z,32.80
2023-12-16T20:22:02.821Z,32.60
2023-12-16T20:24:33.113Z,33.30
2023-12-16T20:27:03.470Z,31.60
2023-12-16T20:29:33.761Z,31.90
2023-12-16T20:32:04.018Z,35.70
2023-12-16T20:34:34.401Z,52.30
2023-12-16T20:37:06.505Z,43.30
2023-12-16T20:39:53.916Z,38.10
2023-12-16T20:42:24.172Z,39.50
2023-12-16T20:44:54.480Z,37.60
2023-12-16T20:47:24.747Z,38.70
2023-12-16T20:49:55.102Z,37.60
2023-12-16T20:52:26.640Z,38.00
2023-12-16T20:54:56.899Z,36.50
2023-12-16T20:57:27.136Z,34.30
2023-12-16T20:59:57.408Z,35.70
2023-12-16T21:02:27.656Z,33.00
2023-12-16T21:04:57.922Z,33.10
2023-12-16T21:07:28.615Z,33.00
2023-12-16T21:09:58.881Z,33.30
2023-12-16T21:12:29.186Z,32.80
2023-12-16T21:14:59.761Z,32.60
2023-12-16T21:17:30.389Z,31.60
2023-12-16T21:20:01.125Z,30.80
2023-12-16T21:22:31.519Z,30.10
2023-12-16T21:25:01.788Z,29.90
2023-12-16T21:27:32.134Z,30.10
2023-12-16T21:30:02.535Z,28.20
2023-12-16T21:32:33.074Z,28.40
2023-12-16T21:35:03.738Z,28.40
2023-12-16T21:37:34.139Z,27.60
2023-12-16T21:40:04.683Z,25.70
2023-12-16T21:42:34.919Z,26.10
2023-12-16T21:45:05.861Z,26.40
2023-12-16T21:47:36.523Z,25.30
2023-12-16T21:50:07.946Z,24.70
2023-12-16T21:52:38.206Z,25.40
2023-12-16T21:55:10.270Z,23.50
2023-12-16T21:57:40.736Z,23.90
2023-12-16T22:00:13.010Z,23.60
2023-12-16T22:02:43.328Z,23.40
2023-12-16T22:05:15.435Z,23.20
2023-12-16T22:07:45.752Z,21.50
2023-12-16T22:10:16.235Z,21.80
2023-12-16T22:12:46.559Z,23.20
2023-12-16T22:15:17.087Z,22.10
2023-12-16T22:17:47.452Z,21.70
2023-12-16T22:20:18.578Z,21.30
2023-12-16T22:22:49.001Z,21.00
2023-12-16T22:25:19.387Z,20.20
2023-12-16T22:27:49.727Z,20.40
2023-12-16T22:30:20.097Z,19.60
2023-12-16T22:32:50.406Z,19.60
2023-12-16T22:35:24.218Z,19.50
2023-12-16T22:37:55.234Z,18.90
2023-12-16T22:40:25.625Z,19.60
2023-12-16T22:42:55.846Z,18.70
2023-12-16T22:45:26.327Z,18.10
2023-12-16T22:47:56.875Z,18.30
2023-12-16T22:50:27.513Z,17.80
2023-12-16T22:52:57.977Z,16.70
2023-12-16T22:55:28.274Z,17.00
2023-12-16T22:57:58.542Z,16.90
2023-12-16T23:00:31.913Z,16.90
2023-12-16T23:03:02.599Z,16.10
2023-12-16T23:05:33.381Z,16.90
2023-12-16T23:08:03.891Z,16.20
2023-12-16T23:10:34.212Z,16.20
2023-12-16T23:13:04.454Z,15.10
2023-12-16T23:15:34.753Z,14.80
2023-12-16T23:18:05.751Z,15.90
2023-12-16T23:20:36.097Z,15.00
2023-12-16T23:23:06.329Z,14.20
2023-12-16T23:25:36.552Z,27.30
2023-12-16T23:28:07.208Z,59.70
2023-12-16T23:30:37.628Z,57.60
2023-12-16T23:33:08.066Z,52.10
2023-12-16T23:35:38.513Z,47.30
2023-12-16T23:38:08.754Z,45.70
2023-12-16T23:40:39.288Z,45.50
2023-12-16T23:43:09.510Z,40.00
2023-12-16T23:45:39.748Z,39.70
2023-12-16T23:48:10.350Z,41.30
2023-12-16T23:50:40.729Z,37.30
2023-12-16T23:53:11.062Z,38.30
2023-12-16T23:55:41.290Z,39.60
2023-12-16T23:58:11.686Z,37.90
